createdAt,value
2022-12-08T00:01:24.393Z,2.40
2022-12-08T00:03:51.642Z,2.30
2022-12-08T00:06:54.120Z,2.30
2022-12-08T00:09:27.206Z,2.30
2022-12-08T00:12:00.926Z,2.30
2022-12-08T00:14:40.658Z,2.30
2022-12-08T00:17:08.235Z,2.30
2022-12-08T00:20:27.771Z,2.20
2022-12-08T00:22:54.696Z,2.20
2022-12-08T00:25:21.796Z,2.20
2022-12-08T00:27:48.842Z,2.20
2022-12-08T00:30:15.899Z,2.20
2022-12-08T00:32:42.850Z,2.20
2022-12-08T00:35:09.814Z,2.20
2022-12-08T00:37:36.740Z,2.20
2022-12-08T00:40:04.286Z,2.20
2022-12-08T00:42:31.628Z,2.20
2022-12-08T00:44:58.615Z,2.20
2022-12-08T00:47:25.561Z,2.20
2022-12-08T00:49:52.576Z,2.20
2022-12-08T00:52:19.672Z,2.20
2022-12-08T00:54:46.915Z,2.20
2022-12-08T00:57:13.908Z,2.10
2022-12-08T00:59:40.858Z,2.10
2022-12-08T01:02:08.046Z,2.10
2022-12-08T01:04:37.650Z,2.10
2022-12-08T01:07:04.668Z,2.10
2022-12-08T01:09:31.623Z,2.10
2022-12-08T01:11:58.596Z,2.10
2022-12-08T01:14:25.618Z,2.10
2022-12-08T01:16:52.712Z,2.10
2022-12-08T01:19:19.753Z,2.10
2022-12-08T01:21:46.801Z,2.10
2022-12-08T01:24:17.841Z,2.00
2022-12-08T01:26:44.956Z,2.10
2022-12-08T01:29:12.244Z,2.00
2022-12-08T01:31:39.484Z,2.00
2022-12-08T01:34:09.962Z,2.00
2022-12-08T01:36:39.975Z,2.00
2022-12-08T01:39:17.470Z,2.00
2022-12-08T01:41:45.112Z,2.00
2022-12-08T01:44:12.002Z,2.00
2022-12-08T01:46:42.371Z,2.00
2022-12-08T01:49:09.337Z,1.90
2022-12-08T01:51:39.301Z,1.90
2022-12-08T01:54:08.865Z,2.00
2022-12-08T01:56:49.949Z,1.90
2022-12-08T01:59:17.359Z,1.90
2022-12-08T02:01:44.282Z,1.90
2022-12-08T02:04:11.396Z,1.90
2022-12-08T02:06:41.450Z,1.90
2022-12-08T02:09:08.584Z,1.80
2022-12-08T02:11:35.611Z,1.80
2022-12-08T02:14:03.791Z,1.80
2022-12-08T02:16:36.726Z,1.80
2022-12-08T02:19:43.614Z,1.80
2022-12-08T02:22:15.909Z,1.80
2022-12-08T02:24:42.765Z,1.70
2022-12-08T02:27:34.124Z,1.70
2022-12-08T02:30:46.973Z,1.70
2022-12-08T02:33:39.060Z,1.70
2022-12-08T02:36:23.999Z,1.70
2022-12-08T02:39:06.249Z,1.70
2022-12-08T02:41:49.668Z,1.70
2022-12-08T02:44:35.439Z,1.70
2022-12-08T02:47:04.530Z,1.60
2022-12-08T02:49:35.282Z,1.60
2022-12-08T02:52:14.312Z,1.60
2022-12-08T02:54:43.584Z,1.60
2022-12-08T02:57:19.537Z,1.60
2022-12-08T03:00:15.968Z,1.60
2022-12-08T03:02:45.777Z,1.60
2022-12-08T03:05:31.270Z,1.60
2022-12-08T03:08:11.947Z,1.60
2022-12-08T03:11:03.950Z,1.50
2022-12-08T03:13:45.578Z,1.50
2022-12-08T03:16:14.888Z,1.50
2022-12-08T03:18:44.307Z,1.50
2022-12-08T03:21:11.397Z,1.40
2022-12-08T03:23:38.558Z,1.40
2022-12-08T03:26:09.223Z,1.40
2022-12-08T03:28:36.134Z,1.40
2022-12-08T03:31:03.910Z,1.40
2022-12-08T03:33:32.291Z,1.40
2022-12-08T03:35:59.817Z,1.30
2022-12-08T03:38:26.764Z,1.40
2022-12-08T03:41:12.487Z,1.40
2022-12-08T03:43:39.397Z,1.40
2022-12-08T03:46:06.460Z,1.40
2022-12-08T03:48:33.428Z,1.40
2022-12-08T03:51:00.349Z,1.40
2022-12-08T03:53:27.207Z,1.40
2022-12-08T03:55:54.572Z,1.40
2022-12-08T03:58:21.527Z,1.40
2022-12-08T04:00:48.476Z,1.40
2022-12-08T04:03:18.535Z,1.30
2022-12-08T04:05:45.478Z,1.30
2022-12-08T04:08:12.489Z,1.30
2022-12-08T04:10:39.578Z,1.40
2022-12-08T04:13:09.195Z,1.30
2022-12-08T04:15:39.155Z,1.40
2022-12-08T04:18:07.073Z,1.30
2022-12-08T04:20:33.969Z,1.30
2022-12-08T04:23:00.962Z,1.30
2022-12-08T04:25:28.213Z,1.30
2022-12-08T04:27:56.519Z,1.20
2022-12-08T04:30:23.542Z,1.30
2022-12-08T04:32:50.476Z,1.30
2022-12-08T04:35:17.469Z,1.20
2022-12-08T04:37:44.703Z,1.20
2022-12-08T04:40:12.885Z,1.20
2022-12-08T04:42:39.995Z,1.20
2022-12-08T04:45:07.286Z,1.20
2022-12-08T04:47:34.306Z,1.10
2022-12-08T04:50:01.419Z,1.10
2022-12-08T04:52:28.722Z,1.10
2022-12-08T04:54:55.586Z,1.10
2022-12-08T04:57:22.488Z,1.10
2022-12-08T04:59:49.424Z,1.10
2022-12-08T05:02:16.488Z,1.10
2022-12-08T05:04:43.545Z,1.10
2022-12-08T05:07:10.794Z,1.10
2022-12-08T05:09:38.896Z,1.20
2022-12-08T05:12:08.770Z,1.10
2022-12-08T05:14:35.734Z,1.10
2022-12-08T05:17:09.114Z,1.10
2022-12-08T05:19:36.601Z,1.10
2022-12-08T05:22:03.770Z,1.10
2022-12-08T05:24:30.801Z,1.10
2022-12-08T05:26:57.799Z,1.10
2022-12-08T05:29:27.828Z,1.10
2022-12-08T05:31:54.802Z,1.10
2022-12-08T05:34:21.841Z,1.10
2022-12-08T05:36:48.751Z,1.10
2022-12-08T05:39:15.801Z,1.10
2022-12-08T05:41:42.777Z,1.00
2022-12-08T05:44:09.748Z,1.10
2022-12-08T05:46:36.780Z,1.10
2022-12-08T05:49:03.732Z,1.00
2022-12-08T05:51:30.722Z,1.00
2022-12-08T05:53:57.987Z,1.00
2022-12-08T05:56:25.154Z,1.00
2022-12-08T05:58:52.241Z,1.00
2022-12-08T06:01:27.828Z,1.00
2022-12-08T06:03:55.016Z,0.90
2022-12-08T06:06:22.084Z,0.90
2022-12-08T06:08:49.167Z,1.00
2022-12-08T06:11:29.359Z,0.90
2022-12-08T06:13:59.539Z,0.90
2022-12-08T06:16:26.751Z,0.90
2022-12-08T06:18:53.858Z,0.90
2022-12-08T06:21:20.843Z,0.90
2022-12-08T06:23:51.847Z,0.90
2022-12-08T06:26:19.014Z,0.90
2022-12-08T06:28:45.938Z,0.90
2022-12-08T06:31:18.904Z,0.80
2022-12-08T06:33:46.297Z,0.80
2022-12-08T06:36:14.080Z,0.80
2022-12-08T06:38:43.588Z,0.80
2022-12-08T06:41:10.841Z,0.80
2022-12-08T06:43:37.847Z,0.80
2022-12-08T06:46:11.857Z,0.80
2022-12-08T06:48:38.797Z,0.80
2022-12-08T06:51:10.160Z,0.70
2022-12-08T06:53:37.641Z,0.70
2022-12-08T06:56:05.787Z,0.70
2022-12-08T06:58:32.864Z,0.70
2022-12-08T07:01:07.119Z,0.70
2022-12-08T07:03:34.093Z,0.70
2022-12-08T07:06:04.151Z,0.70
2022-12-08T07:08:32.438Z,0.60
2022-12-08T07:10:59.563Z,0.60
2022-12-08T07:13:26.575Z,0.60
2022-12-08T07:15:53.652Z,0.60
2022-12-08T07:18:20.663Z,0.60
2022-12-08T07:20:47.767Z,0.60
2022-12-08T07:23:14.777Z,0.60
2022-12-08T07:25:41.847Z,0.60
2022-12-08T07:28:13.268Z,0.60
2022-12-08T07:30:40.307Z,0.60
2022-12-08T07:33:07.422Z,0.60
2022-12-08T07:35:35.363Z,0.60
2022-12-08T07:38:02.966Z,0.60
2022-12-08T07:40:29.879Z,0.60
2022-12-08T07:42:59.233Z,0.60
2022-12-08T07:45:31.474Z,0.50
2022-12-08T07:47:58.745Z,0.50
2022-12-08T07:50:25.684Z,0.50
2022-12-08T07:52:52.664Z,0.50
2022-12-08T07:55:22.181Z,0.50
2022-12-08T07:57:53.229Z,0.50
2022-12-08T08:00:20.793Z,0.50
2022-12-08T08:02:51.897Z,0.50
2022-12-08T08:05:19.857Z,0.50
2022-12-08T08:07:48.419Z,0.50
2022-12-08T08:10:15.595Z,0.50
2022-12-08T08:12:42.665Z,0.50
2022-12-08T08:15:09.784Z,0.60
2022-12-08T08:17:37.366Z,0.60
2022-12-08T08:20:08.691Z,0.60
2022-12-08T08:22:38.401Z,0.60
2022-12-08T08:25:05.960Z,0.60
2022-12-08T08:27:33.140Z,0.60
2022-12-08T08:30:00.178Z,0.70
2022-12-08T08:32:27.168Z,0.70
2022-12-08T08:34:54.249Z,0.70
2022-12-08T08:37:21.193Z,0.70
2022-12-08T08:39:48.569Z,0.80
2022-12-08T08:42:15.598Z,0.80
2022-12-08T08:44:42.648Z,0.80
2022-12-08T08:47:09.778Z,0.90
2022-12-08T08:49:37.150Z,0.90
2022-12-08T08:52:04.562Z,0.90
2022-12-08T08:54:31.770Z,0.90
2022-12-08T08:56:59.344Z,0.90
2022-12-08T08:59:26.617Z,1.00
2022-12-08T09:01:54.463Z,1.00
2022-12-08T09:04:22.522Z,1.00
2022-12-08T09:06:49.877Z,1.00
2022-12-08T09:09:17.001Z,1.00
2022-12-08T09:11:44.000Z,1.10
2022-12-08T09:14:17.294Z,1.10
2022-12-08T09:16:45.003Z,1.10
2022-12-08T09:19:12.083Z,1.20
2022-12-08T09:21:39.718Z,1.20
2022-12-08T09:24:07.201Z,1.20
2022-12-08T09:26:34.431Z,1.20
2022-12-08T09:29:01.515Z,1.30
2022-12-08T09:31:28.790Z,1.30
2022-12-08T09:33:58.237Z,1.30
2022-12-08T09:36:25.679Z,1.30
2022-12-08T09:38:54.911Z,1.40
2022-12-08T09:41:40.245Z,1.40
2022-12-08T09:44:41.694Z,1.50
2022-12-08T09:48:13.847Z,1.50
2022-12-08T09:51:33.326Z,1.50
2022-12-08T09:54:13.121Z,1.60
2022-12-08T09:59:44.198Z,1.70
2022-12-08T10:02:23.869Z,1.70
2022-12-08T10:04:51.325Z,1.70
2022-12-08T10:07:21.424Z,1.70
2022-12-08T10:10:04.081Z,1.80
2022-12-08T10:12:54.119Z,1.80
2022-12-08T10:15:47.200Z,1.90
2022-12-08T10:18:20.972Z,1.90
2022-12-08T10:20:53.654Z,1.90
2022-12-08T10:23:30.623Z,1.90
2022-12-08T10:26:07.814Z,1.90
2022-12-08T10:28:37.749Z,2.00
2022-12-08T10:31:22.299Z,2.00
2022-12-08T10:34:01.142Z,2.00
2022-12-08T10:36:49.990Z,2.10
2022-12-08T10:39:40.127Z,2.10
2022-12-08T10:42:25.556Z,2.20
2022-12-08T10:45:18.785Z,2.20
2022-12-08T10:48:24.758Z,2.20
2022-12-08T10:51:04.255Z,2.30
2022-12-08T10:53:32.750Z,2.30
2022-12-08T10:56:02.793Z,2.30
2022-12-08T10:58:46.041Z,2.40
2022-12-08T11:01:22.283Z,2.40
2022-12-08T11:03:50.537Z,2.40
2022-12-08T11:06:29.923Z,2.40
2022-12-08T11:08:58.714Z,2.50
2022-12-08T11:11:44.684Z,2.50
2022-12-08T11:14:36.829Z,2.50
2022-12-08T11:17:09.108Z,2.50
2022-12-08T11:20:04.590Z,2.60
2022-12-08T11:22:33.952Z,2.60
2022-12-08T11:25:21.334Z,2.60
2022-12-08T11:27:49.788Z,2.60
2022-12-08T11:30:20.995Z,2.70
2022-12-08T11:32:54.107Z,2.60
2022-12-08T11:35:35.305Z,2.70
2022-12-08T11:38:21.498Z,2.70
2022-12-08T11:41:19.896Z,2.70
2022-12-08T11:47:04.575Z,2.80
2022-12-08T11:53:37.765Z,2.80
2022-12-08T11:56:21.095Z,2.90
2022-12-08T11:58:53.407Z,2.90
2022-12-08T12:01:22.746Z,2.90
2022-12-08T12:03:55.783Z,2.90
2022-12-08T12:07:00.556Z,3.00
2022-12-08T12:10:19.049Z,3.00
2022-12-08T12:13:10.144Z,3.00
2022-12-08T12:15:59.147Z,3.00
2022-12-08T12:18:40.721Z,3.10
2022-12-08T12:21:20.114Z,3.10
2022-12-08T12:24:07.387Z,3.10
2022-12-08T12:26:37.341Z,3.20
2022-12-08T12:29:11.978Z,3.20
2022-12-08T12:31:44.098Z,3.20
2022-12-08T12:34:18.014Z,3.20
2022-12-08T12:36:52.460Z,3.30
2022-12-08T12:39:21.528Z,3.30
2022-12-08T12:41:57.001Z,3.30
2022-12-08T12:44:30.132Z,3.30
2022-12-08T12:46:58.523Z,3.40
2022-12-08T12:49:47.208Z,3.40
2022-12-08T12:52:20.573Z,3.40
2022-12-08T12:54:51.002Z,3.40
2022-12-08T12:57:25.046Z,3.50
2022-12-08T13:02:45.103Z,3.60
2022-12-08T13:05:31.893Z,3.60
2022-12-08T13:08:21.732Z,3.60
2022-12-08T13:10:57.340Z,3.70
2022-12-08T13:14:01.680Z,3.70
2022-12-08T13:20:24.143Z,3.80
2022-12-08T13:22:54.161Z,3.80
2022-12-08T13:25:39.920Z,3.80
2022-12-08T13:28:16.039Z,3.80
2022-12-08T13:30:43.220Z,3.80
2022-12-08T13:33:44.894Z,3.80
2022-12-08T13:36:34.436Z,3.80
2022-12-08T13:39:01.913Z,3.90
2022-12-08T13:41:53.789Z,3.90
2022-12-08T13:45:18.591Z,3.90
2022-12-08T13:47:34.204Z,3.90
2022-12-08T13:58:48.202Z,4.00
2022-12-08T14:01:23.232Z,4.10
2022-12-08T14:04:30.558Z,4.10
2022-12-08T14:06:40.914Z,4.10
2022-12-08T14:09:20.068Z,4.20
2022-12-08T14:12:08.200Z,4.20
2022-12-08T14:15:03.657Z,4.20
2022-12-08T14:17:34.856Z,4.30
2022-12-08T14:20:13.634Z,4.30
2022-12-08T14:22:41.468Z,4.30
2022-12-08T14:25:13.391Z,4.30
2022-12-08T14:30:30.625Z,4.30
2022-12-08T14:33:04.618Z,4.20
2022-12-08T14:35:35.543Z,4.30
2022-12-08T14:38:04.371Z,4.30
2022-12-08T14:40:41.856Z,4.20
2022-12-08T14:43:12.339Z,4.20
2022-12-08T14:45:45.315Z,4.20
2022-12-08T14:48:31.135Z,4.20
2022-12-08T14:51:06.518Z,4.20
2022-12-08T14:53:37.184Z,4.20
2022-12-08T14:56:24.735Z,4.10
2022-12-08T14:59:05.760Z,4.10
2022-12-08T15:01:32.768Z,4.10
2022-12-08T15:04:12.532Z,4.00
2022-12-08T15:06:57.850Z,4.00
2022-12-08T15:09:41.715Z,4.00
2022-12-08T15:12:14.968Z,3.90
2022-12-08T15:15:11.546Z,3.90
2022-12-08T15:18:05.698Z,3.80
2022-12-08T15:20:53.427Z,3.80
2022-12-08T15:23:26.082Z,3.70
2022-12-08T15:25:53.635Z,3.60
2022-12-08T15:28:26.698Z,3.60
2022-12-08T15:30:56.789Z,3.50
2022-12-08T15:33:23.808Z,3.50
2022-12-08T15:35:50.847Z,3.40
2022-12-08T15:38:29.028Z,3.30
2022-12-08T15:40:56.807Z,3.30
2022-12-08T15:43:23.707Z,3.30
2022-12-08T15:45:59.167Z,3.20
2022-12-08T15:48:28.418Z,3.20
2022-12-08T15:50:55.478Z,3.10
2022-12-08T15:53:22.649Z,3.00
2022-12-08T15:56:18.889Z,3.00
2022-12-08T15:58:53.985Z,2.90
2022-12-08T16:01:24.238Z,2.90
2022-12-08T16:09:41.209Z,2.70
2022-12-08T16:15:51.560Z,2.60
2022-12-08T16:18:18.058Z,2.60
2022-12-08T16:23:48.237Z,2.50
2022-12-08T16:27:28.564Z,2.40
2022-12-08T16:29:12.963Z,2.40
2022-12-08T16:31:40.019Z,2.30
2022-12-08T16:34:07.062Z,2.30
2022-12-08T16:36:34.249Z,2.20
2022-12-08T16:39:02.576Z,2.20
2022-12-08T16:41:49.054Z,2.10
2022-12-08T16:44:16.182Z,2.10
2022-12-08T16:46:43.292Z,2.10
2022-12-08T16:49:11.517Z,1.90
2022-12-08T16:51:38.458Z,2.00
2022-12-08T16:54:05.644Z,1.90
2022-12-08T16:56:33.612Z,1.90
2022-12-08T16:59:01.920Z,1.90
2022-12-08T17:01:29.131Z,1.80
2022-12-08T17:06:53.125Z,1.80
2022-12-08T17:09:20.343Z,1.80
2022-12-08T17:11:47.332Z,1.70
2022-12-08T17:14:14.340Z,1.70
2022-12-08T17:16:41.767Z,1.70
2022-12-08T17:19:09.040Z,1.60
2022-12-08T17:21:36.103Z,1.60
2022-12-08T17:24:03.078Z,1.60
2022-12-08T17:26:30.273Z,1.60
2022-12-08T17:29:01.432Z,1.50
2022-12-08T17:31:30.187Z,1.50
2022-12-08T17:34:05.020Z,1.50
2022-12-08T17:36:31.994Z,1.50
2022-12-08T17:38:59.362Z,1.50
2022-12-08T17:41:26.300Z,1.40
2022-12-08T17:43:54.547Z,1.40
2022-12-08T17:46:21.882Z,1.40
2022-12-08T17:48:48.959Z,1.40
2022-12-08T17:51:16.099Z,1.40
2022-12-08T17:53:43.316Z,1.40
2022-12-08T17:56:19.444Z,1.30
2022-12-08T17:58:54.551Z,1.30
2022-12-08T18:01:22.583Z,1.30
2022-12-08T18:03:49.868Z,1.30
2022-12-08T18:06:17.835Z,1.20
2022-12-08T18:08:45.193Z,1.20
2022-12-08T18:11:16.238Z,1.10
2022-12-08T18:13:43.168Z,1.10
2022-12-08T18:16:10.085Z,1.10
2022-12-08T18:18:36.973Z,1.10
2022-12-08T18:21:04.288Z,1.10
2022-12-08T18:23:31.238Z,1.10
2022-12-08T18:26:00.804Z,1.00
2022-12-08T18:28:27.703Z,1.00
2022-12-08T18:30:54.857Z,1.00
2022-12-08T18:33:21.863Z,1.00
2022-12-08T18:35:50.098Z,1.00
2022-12-08T18:38:17.201Z,1.00
2022-12-08T18:40:46.619Z,1.00
2022-12-08T18:43:13.626Z,0.90
2022-12-08T18:45:40.538Z,0.90
2022-12-08T18:48:07.541Z,0.90
2022-12-08T18:50:34.803Z,0.90
2022-12-08T18:53:01.728Z,0.90
2022-12-08T18:55:28.699Z,0.80
2022-12-08T18:57:55.740Z,0.90
2022-12-08T19:00:23.031Z,0.80
2022-12-08T19:02:50.014Z,0.80
2022-12-08T19:05:17.065Z,0.80
2022-12-08T19:07:45.675Z,0.80
2022-12-08T19:10:12.900Z,0.80
2022-12-08T19:12:39.891Z,0.80
2022-12-08T19:15:07.717Z,0.80
2022-12-08T19:17:34.968Z,0.80
2022-12-08T19:20:02.067Z,0.70
2022-12-08T19:22:28.915Z,0.70
2022-12-08T19:24:56.067Z,0.70
2022-12-08T19:27:25.589Z,0.70
2022-12-08T19:29:55.491Z,0.60
2022-12-08T19:32:22.406Z,0.60
2022-12-08T19:34:49.440Z,0.60
2022-12-08T19:37:17.014Z,0.60
2022-12-08T19:40:02.444Z,0.60
2022-12-08T19:42:47.745Z,0.60
2022-12-08T19:45:17.915Z,0.50
2022-12-08T19:47:45.004Z,0.50
2022-12-08T19:50:31.395Z,0.50
2022-12-08T19:52:58.503Z,0.50
2022-12-08T19:55:27.582Z,0.50
2022-12-08T19:57:55.144Z,0.50
2022-12-08T20:00:22.055Z,0.50
2022-12-08T20:02:49.025Z,0.50
2022-12-08T20:05:18.581Z,0.40
2022-12-08T20:07:48.369Z,0.40
2022-12-08T20:10:22.423Z,0.40
2022-12-08T20:12:49.372Z,0.40
2022-12-08T20:15:16.589Z,0.40
2022-12-08T20:17:43.921Z,0.40
2022-12-08T20:20:14.695Z,0.30
2022-12-08T20:22:42.261Z,0.30
2022-12-08T20:25:13.245Z,0.30
2022-12-08T20:27:40.500Z,0.30
2022-12-08T20:30:13.369Z,0.30
2022-12-08T20:32:43.587Z,0.30
2022-12-08T20:35:10.816Z,0.20
2022-12-08T20:37:37.713Z,0.20
2022-12-08T20:40:06.278Z,0.30
2022-12-08T20:42:33.426Z,0.20
2022-12-08T20:45:00.499Z,0.30
2022-12-08T20:47:27.535Z,0.20
2022-12-08T20:49:54.856Z,0.20
2022-12-08T20:52:21.895Z,0.20
2022-12-08T20:54:49.284Z,0.20
2022-12-08T20:57:16.325Z,0.20
2022-12-08T20:59:43.405Z,0.10
2022-12-08T21:02:11.242Z,0.10
2022-12-08T21:04:38.491Z,0.10
2022-12-08T21:07:05.631Z,0.10
2022-12-08T21:09:32.923Z,0.00
2022-12-08T21:12:00.127Z,0.10
2022-12-08T21:14:27.310Z,0.00
2022-12-08T21:16:54.689Z,0.00
2022-12-08T21:19:22.043Z,0.00
2022-12-08T21:21:50.868Z,0.00
2022-12-08T21:24:18.710Z,0.00
2022-12-08T21:26:45.635Z,0.00
2022-12-08T21:29:12.833Z,-0.10
2022-12-08T21:31:40.150Z,-0.10
2022-12-08T21:34:07.309Z,-0.10
2022-12-08T21:36:34.421Z,-0.10
2022-12-08T21:39:02.885Z,-0.10
2022-12-08T21:41:48.673Z,-0.10
2022-12-08T21:44:18.871Z,-0.10
2022-12-08T21:46:46.044Z,-0.10
2022-12-08T21:49:13.238Z,-0.10
2022-12-08T21:51:42.363Z,-0.10
2022-12-08T21:54:18.395Z,-0.10
2022-12-08T21:56:46.261Z,-0.20
2022-12-08T21:59:13.812Z,-0.20
2022-12-08T22:01:43.391Z,-0.20
2022-12-08T22:04:12.130Z,-0.10
2022-12-08T22:06:39.563Z,-0.20
2022-12-08T22:09:07.268Z,-0.20
2022-12-08T22:11:34.750Z,-0.20
2022-12-08T22:14:01.955Z,-0.10
2022-12-08T22:16:29.069Z,-0.20
2022-12-08T22:18:56.059Z,-0.20
2022-12-08T22:21:23.090Z,-0.20
2022-12-08T22:23:50.155Z,-0.20
2022-12-08T22:26:17.050Z,-0.20
2022-12-08T22:28:45.420Z,-0.20
2022-12-08T22:31:13.200Z,-0.20
2022-12-08T22:33:40.491Z,-0.30
2022-12-08T22:36:10.901Z,-0.30
2022-12-08T22:38:38.355Z,-0.30
2022-12-08T22:41:05.761Z,-0.30
2022-12-08T22:43:32.974Z,-0.30
2022-12-08T22:46:00.048Z,-0.30
2022-12-08T22:48:27.057Z,-0.30
2022-12-08T22:51:00.440Z,-0.30
2022-12-08T22:53:27.484Z,-0.30
2022-12-08T22:55:54.610Z,-0.30
2022-12-08T22:58:21.811Z,-0.30
2022-12-08T23:00:48.750Z,-0.30
2022-12-08T23:03:15.707Z,-0.30
2022-12-08T23:05:43.164Z,-0.30
2022-12-08T23:08:15.201Z,-0.30
2022-12-08T23:10:42.791Z,-0.30
2022-12-08T23:13:10.107Z,-0.30
2022-12-08T23:15:37.353Z,-0.30
2022-12-08T23:18:05.007Z,-0.30
2022-12-08T23:20:32.087Z,-0.40
2022-12-08T23:22:58.980Z,-0.40
2022-12-08T23:25:26.018Z,-0.40
2022-12-08T23:27:52.961Z,-0.40
2022-12-08T23:30:20.067Z,-0.40
2022-12-08T23:32:48.032Z,-0.40
2022-12-08T23:35:15.237Z,-0.40
2022-12-08T23:37:42.515Z,-0.40
2022-12-08T23:40:09.976Z,-0.40
2022-12-08T23:42:37.351Z,-0.40
2022-12-08T23:45:05.905Z,-0.40
2022-12-08T23:47:35.842Z,-0.40
2022-12-08T23:50:03.328Z,-0.40
2022-12-08T23:52:30.409Z,-0.40
2022-12-08T23:54:57.562Z,-0.50
2022-12-08T23:57:24.464Z,-0.40
2022-12-08T23:59:51.522Z,-0.40
